sensor_id;sensor_type;location;lat;lon;timestamp;pressure;altitude;pressure_sealevel;temperature;humidity
68628;BME280;55611;48.602;9.490;2023-03-01T00:01:43;97580;;;1.5;56
68628;BME280;55611;48.602;9.490;2023-03-01T00:04:13;97580;;;1.5;56
68628;BME280;55611;48.602;9.490;2023-03-01T00:06:44;97580;;;1.5;56
68628;BME280;55611;48.602;9.490;2023-03-01T00:09:15;97580;;;1.5;56
68628;BME280;55611;48.602;9.490;2023-03-01T00:11:45;97580;;;1.4;56
68628;BME280;55611;48.602;9.490;2023-03-01T00:14:15;97590;;;1.3;56
68628;BME280;55611;48.602;9.490;2023-03-01T00:16:46;97590;;;1.2;56
68628;BME280;55611;48.602;9.490;2023-03-01T00:19:17;97590;;;1.3;56
68628;BME280;55611;48.602;9.490;2023-03-01T00:21:47;97600;;;1.2;56
68628;BME280;55611;48.602;9.490;2023-03-01T00:24:17;97590;;;1.2;56
68628;BME280;55611;48.602;9.490;2023-03-01T00:26:48;97590;;;1.3;56
68628;BME280;55611;48.602;9.490;2023-03-01T00:29:18;97580;;;1.4;56
68628;BME280;55611;48.602;9.490;2023-03-01T00:31:49;97570;;;1.5;56
68628;BME280;55611;48.602;9.490;2023-03-01T00:34:20;97570;;;1.6;56
68628;BME280;55611;48.602;9.490;2023-03-01T00:36:50;97570;;;1.6;56
68628;BME280;55611;48.602;9.490;2023-03-01T00:39:21;97570;;;1.5;56
68628;BME280;55611;48.602;9.490;2023-03-01T00:41:51;97570;;;1.5;56
68628;BME280;55611;48.602;9.490;2023-03-01T00:44:22;97570;;;1.5;56
68628;BME280;55611;48.602;9.490;2023-03-01T00:46:52;97570;;;1.6;56
68628;BME280;55611;48.602;9.490;2023-03-01T00:49:23;97570;;;1.7;56
68628;BME280;55611;48.602;9.490;2023-03-01T00:51:53;97570;;;1.6;56
68628;BME280;55611;48.602;9.490;2023-03-01T00:54:24;97570;;;1.5;56
68628;BME280;55611;48.602;9.490;2023-03-01T00:56:54;97570;;;1.3;56
68628;BME280;55611;48.602;9.490;2023-03-01T00:59:25;97570;;;1.2;56
68628;BME280;55611;48.602;9.490;2023-03-01T01:01:55;97570;;;1.2;56
68628;BME280;55611;48.602;9.490;2023-03-01T01:04:26;97570;;;1.2;55.5
68628;BME280;55611;48.602;9.490;2023-03-01T01:06:56;97570;;;1.2;55.5
68628;BME280;55611;48.602;9.490;2023-03-01T01:09:27;97560;;;1.1;55.5
68628;BME280;55611;48.602;9.490;2023-03-01T01:11:57;97560;;;1.2;55.5
68628;BME280;55611;48.602;9.490;2023-03-01T01:14:28;97560;;;1.2;55.5
68628;BME280;55611;48.602;9.490;2023-03-01T01:16:58;97550;;;1.2;55.5
68628;BME280;55611;48.602;9.490;2023-03-01T01:19:29;97560;;;1.1;56
68628;BME280;55611;48.602;9.490;2023-03-01T01:21:59;97560;;;1.1;56
68628;BME280;55611;48.602;9.490;2023-03-01T01:24:30;97560;;;1.2;56
68628;BME280;55611;48.602;9.490;2023-03-01T01:27:00;97550;;;1.3;56
68628;BME280;55611;48.602;9.490;2023-03-01T01:29:31;97550;;;1.3;56
68628;BME280;55611;48.602;9.490;2023-03-01T01:32:01;97550;;;1.4;56
68628;BME280;55611;48.602;9.490;2023-03-01T01:34:32;97550;;;1.5;56.5
68628;BME280;55611;48.602;9.490;2023-03-01T01:37:02;97550;;;1.7;56.5
68628;BME280;55611;48.602;9.490;2023-03-01T01:39:34;97540;;;1.8;56.5
68628;BME280;55611;48.602;9.490;2023-03-01T01:42:03;97550;;;1.9;56.5
68628;BME280;55611;48.602;9.490;2023-03-01T01:44:34;97550;;;2;56.5
68628;BME280;55611;48.602;9.490;2023-03-01T01:47:05;97540;;;2;56.5
68628;BME280;55611;48.602;9.490;2023-03-01T01:49:37;97540;;;2.1;56.5
68628;BME280;55611;48.602;9.490;2023-03-01T01:54:38;97530;;;2.1;56.5
68628;BME280;55611;48.602;9.490;2023-03-01T01:57:07;97530;;;2.2;56.5
68628;BME280;55611;48.602;9.490;2023-03-01T01:59:38;97520;;;2.2;56.5
68628;BME280;55611;48.602;9.490;2023-03-01T02:02:08;97520;;;2.3;56.5
68628;BME280;55611;48.602;9.490;2023-03-01T02:04:38;97520;;;2.3;56.5
68628;BME280;55611;48.602;9.490;2023-03-01T02:07:13;97510;;;2.3;57
68628;BME280;55611;48.602;9.490;2023-03-01T02:09:39;97510;;;2.3;57
68628;BME280;55611;48.602;9.490;2023-03-01T02:12:10;97510;;;2.3;57
68628;BME280;55611;48.602;9.490;2023-03-01T02:14:40;97510;;;2.3;57
68628;BME280;55611;48.602;9.490;2023-03-01T02:17:11;97510;;;2.2;57
68628;BME280;55611;48.602;9.490;2023-03-01T02:19:44;97510;;;2.3;57
68628;BME280;55611;48.602;9.490;2023-03-01T02:22:15;97500;;;2.3;57
68628;BME280;55611;48.602;9.490;2023-03-01T02:24:47;97500;;;2.2;57
68628;BME280;55611;48.602;9.490;2023-03-01T02:27:13;97490;;;2.3;57
68628;BME280;55611;48.602;9.490;2023-03-01T02:29:43;97490;;;2.3;57
68628;BME280;55611;48.602;9.490;2023-03-01T02:32:14;97490;;;2.3;57
68628;BME280;55611;48.602;9.490;2023-03-01T02:34:44;97490;;;2.3;57
68628;BME280;55611;48.602;9.490;2023-03-01T02:37:15;97480;;;2.3;57
68628;BME280;55611;48.602;9.490;2023-03-01T02:39:46;97480;;;2.3;57
68628;BME280;55611;48.602;9.490;2023-03-01T02:42:19;97470;;;2.3;57
68628;BME280;55611;48.602;9.490;2023-03-01T02:44:47;97480;;;2.4;57
68628;BME280;55611;48.602;9.490;2023-03-01T02:47:17;97470;;;2.3;57
68628;BME280;55611;48.602;9.490;2023-03-01T02:49:47;97470;;;2.3;57
68628;BME280;55611;48.602;9.490;2023-03-01T02:54:50;97470;;;2.3;57
68628;BME280;55611;48.602;9.490;2023-03-01T02:57:19;97460;;;2.3;57
68628;BME280;55611;48.602;9.490;2023-03-01T02:59:49;97460;;;2.3;57
68628;BME280;55611;48.602;9.490;2023-03-01T03:02:23;97460;;;2.3;57
68628;BME280;55611;48.602;9.490;2023-03-01T03:04:50;97460;;;2.4;57
68628;BME280;55611;48.602;9.490;2023-03-01T03:07:21;97460;;;2.4;57
68628;BME280;55611;48.602;9.490;2023-03-01T03:09:51;97450;;;2.4;57
68628;BME280;55611;48.602;9.490;2023-03-01T03:14:52;97450;;;2.5;57
68628;BME280;55611;48.602;9.490;2023-03-01T03:17:23;97450;;;2.6;57
68628;BME280;55611;48.602;9.490;2023-03-01T03:19:54;97450;;;2.6;57
68628;BME280;55611;48.602;9.490;2023-03-01T03:22:24;97440;;;2.5;57
68628;BME280;55611;48.602;9.490;2023-03-01T03:24:55;97440;;;2.4;57
68628;BME280;55611;48.602;9.490;2023-03-01T03:27:25;97450;;;2.4;57
68628;BME280;55611;48.602;9.490;2023-03-01T03:29:56;97440;;;2.4;57
68628;BME280;55611;48.602;9.490;2023-03-01T03:32:26;97440;;;2.5;57
68628;BME280;55611;48.602;9.490;2023-03-01T03:34:57;97440;;;2.5;57
68628;BME280;55611;48.602;9.490;2023-03-01T03:37:27;97440;;;2.5;57
68628;BME280;55611;48.602;9.490;2023-03-01T03:39:58;97440;;;2.5;57
68628;BME280;55611;48.602;9.490;2023-03-01T03:42:28;97440;;;2.6;57
68628;BME280;55611;48.602;9.490;2023-03-01T03:44:59;97440;;;2.6;57
68628;BME280;55611;48.602;9.490;2023-03-01T03:47:29;97440;;;2.6;57
68628;BME280;55611;48.602;9.490;2023-03-01T03:50:00;97440;;;2.6;57
68628;BME280;55611;48.602;9.490;2023-03-01T03:52:30;97430;;;2.6;57
68628;BME280;55611;48.602;9.490;2023-03-01T03:55:01;97430;;;2.5;57
68628;BME280;55611;48.602;9.490;2023-03-01T03:57:31;97430;;;2.5;57
68628;BME280;55611;48.602;9.490;2023-03-01T04:00:03;97430;;;2.6;57
68628;BME280;55611;48.602;9.490;2023-03-01T04:02:32;97430;;;2.6;57.5
68628;BME280;55611;48.602;9.490;2023-03-01T04:05:03;97420;;;2.5;57.5
68628;BME280;55611;48.602;9.490;2023-03-01T04:07:34;97420;;;2.6;57
68628;BME280;55611;48.602;9.490;2023-03-01T04:10:04;97420;;;2.6;57
68628;BME280;55611;48.602;9.490;2023-03-01T04:12:34;97420;;;2.7;57
68628;BME280;55611;48.602;9.490;2023-03-01T04:15:06;97410;;;2.7;57
68628;BME280;55611;48.602;9.490;2023-03-01T04:17:35;97410;;;2.7;57
68628;BME280;55611;48.602;9.490;2023-03-01T04:20:06;97420;;;2.7;57
68628;BME280;55611;48.602;9.490;2023-03-01T04:22:37;97410;;;2.7;57
68628;BME280;55611;48.602;9.490;2023-03-01T04:25:07;97410;;;2.7;57
68628;BME280;55611;48.602;9.490;2023-03-01T04:27:37;97410;;;2.8;57
68628;BME280;55611;48.602;9.490;2023-03-01T04:30:08;97400;;;2.8;57
68628;BME280;55611;48.602;9.490;2023-03-01T04:32:38;97410;;;2.8;57
68628;BME280;55611;48.602;9.490;2023-03-01T04:35:09;97400;;;2.8;57
68628;BME280;55611;48.602;9.490;2023-03-01T04:37:39;97400;;;2.8;57
68628;BME280;55611;48.602;9.490;2023-03-01T04:40:10;97400;;;2.8;57
68628;BME280;55611;48.602;9.490;2023-03-01T04:42:40;97400;;;2.8;57
68628;BME280;55611;48.602;9.490;2023-03-01T04:45:11;97400;;;2.7;57
68628;BME280;55611;48.602;9.490;2023-03-01T04:47:42;97400;;;2.7;57.5
68628;BME280;55611;48.602;9.490;2023-03-01T04:50:13;97400;;;2.7;57.5
68628;BME280;55611;48.602;9.490;2023-03-01T04:52:43;97400;;;2.8;57.5
68628;BME280;55611;48.602;9.490;2023-03-01T04:55:13;97400;;;2.9;57.5
68628;BME280;55611;48.602;9.490;2023-03-01T04:57:44;97400;;;2.9;57.5
68628;BME280;55611;48.602;9.490;2023-03-01T05:00:14;97390;;;2.9;57.5
68628;BME280;55611;48.602;9.490;2023-03-01T05:02:46;97400;;;2.9;57.5
68628;BME280;55611;48.602;9.490;2023-03-01T05:05:15;97400;;;2.9;57.5
68628;BME280;55611;48.602;9.490;2023-03-01T05:07:46;97400;;;2.9;57.5
68628;BME280;55611;48.602;9.490;2023-03-01T05:10:16;97400;;;2.8;57.5
68628;BME280;55611;48.602;9.490;2023-03-01T05:12:47;97400;;;2.8;57.5
68628;BME280;55611;48.602;9.490;2023-03-01T05:15:17;97400;;;2.8;57.5
68628;BME280;55611;48.602;9.490;2023-03-01T05:17:48;97400;;;2.8;57.5
68628;BME280;55611;48.602;9.490;2023-03-01T05:20:18;97400;;;2.8;57.5
68628;BME280;55611;48.602;9.490;2023-03-01T05:25:19;97390;;;2.9;57.5
68628;BME280;55611;48.602;9.490;2023-03-01T05:27:50;97400;;;2.9;57.5
68628;BME280;55611;48.602;9.490;2023-03-01T05:30:20;97390;;;2.9;57.5
68628;BME280;55611;48.602;9.490;2023-03-01T05:32:51;97390;;;2.8;57.5
68628;BME280;55611;48.602;9.490;2023-03-01T05:35:21;97390;;;2.8;57.5
68628;BME280;55611;48.602;9.490;2023-03-01T05:40:23;97390;;;2.9;57.5
68628;BME280;55611;48.602;9.490;2023-03-01T05:42:54;97390;;;2.8;57.5
68628;BME280;55611;48.602;9.490;2023-03-01T05:45:24;97400;;;2.8;57.5
68628;BME280;55611;48.602;9.490;2023-03-01T05:47:54;97400;;;2.8;57.5
68628;BME280;55611;48.602;9.490;2023-03-01T05:50:26;97390;;;2.9;57.5
68628;BME280;55611;48.602;9.490;2023-03-01T05:52:58;97390;;;2.9;57.5
68628;BME280;55611;48.602;9.490;2023-03-01T05:55:26;97390;;;2.9;57.5
68628;BME280;55611;48.602;9.490;2023-03-01T05:57:58;97390;;;2.9;57.5
68628;BME280;55611;48.602;9.490;2023-03-01T06:00:27;97390;;;2.9;57.5
68628;BME280;55611;48.602;9.490;2023-03-01T06:02:57;97390;;;2.8;57
68628;BME280;55611;48.602;9.490;2023-03-01T06:05:28;97390;;;2.7;57
68628;BME280;55611;48.602;9.490;2023-03-01T06:07:59;97390;;;2.7;57
68628;BME280;55611;48.602;9.490;2023-03-01T06:10:29;97390;;;2.6;57
68628;BME280;55611;48.602;9.490;2023-03-01T06:12:59;97390;;;2.6;56.5
68628;BME280;55611;48.602;9.490;2023-03-01T06:15:30;97390;;;2.6;56.5
68628;BME280;55611;48.602;9.490;2023-03-01T06:18:00;97390;;;2.5;56.5
68628;BME280;55611;48.602;9.490;2023-03-01T06:20:31;97390;;;2.5;56.5
68628;BME280;55611;48.602;9.490;2023-03-01T06:23:01;97390;;;2.4;56.5
68628;BME280;55611;48.602;9.490;2023-03-01T06:25:32;97380;;;2.4;56.5
68628;BME280;55611;48.602;9.490;2023-03-01T06:30:33;97390;;;2.4;56.5
68628;BME280;55611;48.602;9.490;2023-03-01T06:33:03;97380;;;2.4;56.5
68628;BME280;55611;48.602;9.490;2023-03-01T06:35:34;97380;;;2.4;56.5
68628;BME280;55611;48.602;9.490;2023-03-01T06:38:04;97390;;;2.5;56.5
68628;BME280;55611;48.602;9.490;2023-03-01T06:40:35;97390;;;2.5;56.5
68628;BME280;55611;48.602;9.490;2023-03-01T06:43:05;97390;;;2.5;56.5
68628;BME280;55611;48.602;9.490;2023-03-01T06:45:36;97390;;;2.5;56.5
68628;BME280;55611;48.602;9.490;2023-03-01T06:48:06;97390;;;2.5;56.5
68628;BME280;55611;48.602;9.490;2023-03-01T06:50:37;97380;;;2.6;56.5
68628;BME280;55611;48.602;9.490;2023-03-01T06:53:07;97380;;;2.6;56.5
68628;BME280;55611;48.602;9.490;2023-03-01T06:55:38;97380;;;2.6;56.5
68628;BME280;55611;48.602;9.490;2023-03-01T06:58:08;97380;;;2.6;56.5
68628;BME280;55611;48.602;9.490;2023-03-01T07:00:39;97380;;;2.7;56.5
68628;BME280;55611;48.602;9.490;2023-03-01T07:03:09;97380;;;2.6;57
68628;BME280;55611;48.602;9.490;2023-03-01T07:05:40;97380;;;2.6;57
68628;BME280;55611;48.602;9.490;2023-03-01T07:10:41;97380;;;2.6;57
68628;BME280;55611;48.602;9.490;2023-03-01T07:13:11;97370;;;2.7;57
68628;BME280;55611;48.602;9.490;2023-03-01T07:15:42;97370;;;2.7;57
68628;BME280;55611;48.602;9.490;2023-03-01T07:18:12;97370;;;2.8;57
68628;BME280;55611;48.602;9.490;2023-03-01T07:20:43;97370;;;2.8;57
68628;BME280;55611;48.602;9.490;2023-03-01T07:23:13;97370;;;2.8;57.5
68628;BME280;55611;48.602;9.490;2023-03-01T07:25:44;97370;;;2.9;57.5
68628;BME280;55611;48.602;9.490;2023-03-01T07:28:15;97370;;;2.9;57.5
68628;BME280;55611;48.602;9.490;2023-03-01T07:30:45;97370;;;2.9;57.5
68628;BME280;55611;48.602;9.490;2023-03-01T07:33:16;97360;;;2.9;57.5
68628;BME280;55611;48.602;9.490;2023-03-01T07:35:46;97360;;;2.9;57.5
68628;BME280;55611;48.602;9.490;2023-03-01T07:38:17;97360;;;3;57.5
68628;BME280;55611;48.602;9.490;2023-03-01T07:40:47;97360;;;3.1;57.5
68628;BME280;55611;48.602;9.490;2023-03-01T07:43:18;97350;;;3.1;57.5
68628;BME280;55611;48.602;9.490;2023-03-01T07:45:48;97350;;;3.2;57.5
68628;BME280;55611;48.602;9.490;2023-03-01T07:48:19;97350;;;3.3;57.5
68628;BME280;55611;48.602;9.490;2023-03-01T07:50:49;97340;;;3.3;58
68628;BME280;55611;48.602;9.490;2023-03-01T07:53:20;97340;;;3.3;58
68628;BME280;55611;48.602;9.490;2023-03-01T07:55:59;97340;;;3.4;58
68628;BME280;55611;48.602;9.490;2023-03-01T07:58:21;97340;;;3.4;58
68628;BME280;55611;48.602;9.490;2023-03-01T08:00:51;97340;;;3.5;58
68628;BME280;55611;48.602;9.490;2023-03-01T08:03:22;97330;;;3.6;57.5
68628;BME280;55611;48.602;9.490;2023-03-01T08:05:52;97330;;;3.5;58
68628;BME280;55611;48.602;9.490;2023-03-01T08:08:23;97330;;;3.6;58
68628;BME280;55611;48.602;9.490;2023-03-01T08:10:56;97330;;;3.6;58
68628;BME280;55611;48.602;9.490;2023-03-01T08:13:24;97330;;;3.6;58
68628;BME280;55611;48.602;9.490;2023-03-01T08:15:54;97330;;;3.6;58
68628;BME280;55611;48.602;9.490;2023-03-01T08:18:25;97340;;;3.6;58
68628;BME280;55611;48.602;9.490;2023-03-01T08:20:55;97330;;;3.7;58
68628;BME280;55611;48.602;9.490;2023-03-01T08:23:26;97330;;;3.8;58
68628;BME280;55611;48.602;9.490;2023-03-01T08:26:04;97330;;;4;58
68628;BME280;55611;48.602;9.490;2023-03-01T08:28:27;97320;;;4.1;58
68628;BME280;55611;48.602;9.490;2023-03-01T08:30:57;97320;;;4.1;58
68628;BME280;55611;48.602;9.490;2023-03-01T08:33:28;97320;;;4.2;58
68628;BME280;55611;48.602;9.490;2023-03-01T08:36:06;97320;;;4.2;58
68628;BME280;55611;48.602;9.490;2023-03-01T08:38:29;97320;;;4.2;58
68628;BME280;55611;48.602;9.490;2023-03-01T08:41:00;97320;;;4.3;58
68628;BME280;55611;48.602;9.490;2023-03-01T08:43:30;97310;;;4.4;58
68628;BME280;55611;48.602;9.490;2023-03-01T08:46:01;97320;;;4.5;58
68628;BME280;55611;48.602;9.490;2023-03-01T08:48:33;97310;;;4.4;58
68628;BME280;55611;48.602;9.490;2023-03-01T08:51:17;97310;;;4.5;58
68628;BME280;55611;48.602;9.490;2023-03-01T08:53:32;97310;;;4.6;58.5
68628;BME280;55611;48.602;9.490;2023-03-01T08:56:03;97300;;;4.7;58.5
68628;BME280;55611;48.602;9.490;2023-03-01T08:58:33;97300;;;4.8;58.5
68628;BME280;55611;48.602;9.490;2023-03-01T09:01:07;97290;;;5;58
68628;BME280;55611;48.602;9.490;2023-03-01T09:03:34;97290;;;5.2;58
68628;BME280;55611;48.602;9.490;2023-03-01T09:06:05;97290;;;5.2;58
68628;BME280;55611;48.602;9.490;2023-03-01T09:08:36;97290;;;5.1;58
68628;BME280;55611;48.602;9.490;2023-03-01T09:11:07;97280;;;5.2;58
68628;BME280;55611;48.602;9.490;2023-03-01T09:13:36;97290;;;5.3;58
68628;BME280;55611;48.602;9.490;2023-03-01T09:16:07;97290;;;5.3;58
68628;BME280;55611;48.602;9.490;2023-03-01T09:18:37;97280;;;5.4;58
68628;BME280;55611;48.602;9.490;2023-03-01T09:21:12;97280;;;5.5;58
68628;BME280;55611;48.602;9.490;2023-03-01T09:23:39;97270;;;5.6;58
68628;BME280;55611;48.602;9.490;2023-03-01T09:26:09;97270;;;5.7;58
68628;BME280;55611;48.602;9.490;2023-03-01T09:28:39;97260;;;5.8;58
68628;BME280;55611;48.602;9.490;2023-03-01T09:31:10;97270;;;5.8;58
68628;BME280;55611;48.602;9.490;2023-03-01T09:33:41;97270;;;5.7;58
68628;BME280;55611;48.602;9.490;2023-03-01T09:36:12;97270;;;5.7;58
68628;BME280;55611;48.602;9.490;2023-03-01T09:38:41;97260;;;5.7;58.5
68628;BME280;55611;48.602;9.490;2023-03-01T09:41:33;97250;;;5.9;58
68628;BME280;55611;48.602;9.490;2023-03-01T09:43:45;97260;;;5.9;58
68628;BME280;55611;48.602;9.490;2023-03-01T09:46:14;97250;;;5.9;58.5
68628;BME280;55611;48.602;9.490;2023-03-01T09:48:48;97250;;;6.1;58
68628;BME280;55611;48.602;9.490;2023-03-01T09:51:16;97250;;;6.2;58
68628;BME280;55611;48.602;9.490;2023-03-01T09:53:44;97250;;;6.2;58
68628;BME280;55611;48.602;9.490;2023-03-01T09:56:17;97240;;;6.3;58
68628;BME280;55611;48.602;9.490;2023-03-01T09:58:54;97250;;;6.4;58
68628;BME280;55611;48.602;9.490;2023-03-01T10:01:25;97250;;;6.5;58
68628;BME280;55611;48.602;9.490;2023-03-01T10:04:51;97240;;;6.5;58
68628;BME280;55611;48.602;9.490;2023-03-01T10:06:19;97240;;;6.6;58
68628;BME280;55611;48.602;9.490;2023-03-01T10:08:53;97240;;;6.6;58
68628;BME280;55611;48.602;9.490;2023-03-01T10:11:21;97230;;;6.7;58
68628;BME280;55611;48.602;9.490;2023-03-01T10:16:24;97230;;;6.8;58
68628;BME280;55611;48.602;9.490;2023-03-01T10:18:53;97220;;;6.7;58
68628;BME280;55611;48.602;9.490;2023-03-01T10:21:20;97220;;;6.8;57.5
68628;BME280;55611;48.602;9.490;2023-03-01T10:23:51;97210;;;6.9;58
68628;BME280;55611;48.602;9.490;2023-03-01T10:26:24;97220;;;7.1;57.5
68628;BME280;55611;48.602;9.490;2023-03-01T10:28:57;97220;;;7.1;57.5
68628;BME280;55611;48.602;9.490;2023-03-01T10:31:23;97220;;;7.1;58
68628;BME280;55611;48.602;9.490;2023-03-01T10:33:53;97220;;;7;58
68628;BME280;55611;48.602;9.490;2023-03-01T10:36:23;97220;;;7;58
68628;BME280;55611;48.602;9.490;2023-03-01T10:38:55;97210;;;7.1;58
68628;BME280;55611;48.602;9.490;2023-03-01T10:41:25;97210;;;7.3;58
68628;BME280;55611;48.602;9.490;2023-03-01T10:46:33;97210;;;7.4;58
68628;BME280;55611;48.602;9.490;2023-03-01T10:49:27;97210;;;7.4;58
68628;BME280;55611;48.602;9.490;2023-03-01T10:51:26;97200;;;7.4;58
68628;BME280;55611;48.602;9.490;2023-03-01T10:53:57;97190;;;7.5;58
68628;BME280;55611;48.602;9.490;2023-03-01T10:56:27;97180;;;7.5;57.5
68628;BME280;55611;48.602;9.490;2023-03-01T10:58:59;97180;;;7.6;57.5
68628;BME280;55611;48.602;9.490;2023-03-01T11:01:30;97180;;;7.7;57.5
68628;BME280;55611;48.602;9.490;2023-03-01T11:04:07;97180;;;7.6;57.5
68628;BME280;55611;48.602;9.490;2023-03-01T11:09:12;97170;;;7.8;57.5
68628;BME280;55611;48.602;9.490;2023-03-01T11:11:31;97160;;;7.9;57.5
68628;BME280;55611;48.602;9.490;2023-03-01T11:14:03;97160;;;7.8;57.5
68628;BME280;55611;48.602;9.490;2023-03-01T11:16:34;97160;;;7.8;57.5
68628;BME280;55611;48.602;9.490;2023-03-01T11:19:17;97160;;;7.9;57.5
68628;BME280;55611;48.602;9.490;2023-03-01T11:21:33;97160;;;7.9;57.5
68628;BME280;55611;48.602;9.490;2023-03-01T11:24:03;97150;;;8;57.5
68628;BME280;55611;48.602;9.490;2023-03-01T11:26:34;97150;;;8;57.5
68628;BME280;55611;48.602;9.490;2023-03-01T11:29:05;97140;;;8;57.5
68628;BME280;55611;48.602;9.490;2023-03-01T11:31:34;97140;;;8.1;57.5
68628;BME280;55611;48.602;9.490;2023-03-01T11:34:13;97130;;;8.2;57.5
68628;BME280;55611;48.602;9.490;2023-03-01T11:39:25;97130;;;8.2;57.5
68628;BME280;55611;48.602;9.490;2023-03-01T11:41:37;97130;;;8.2;57.5
68628;BME280;55611;48.602;9.490;2023-03-01T11:44:11;97120;;;8.2;57.5
68628;BME280;55611;48.602;9.490;2023-03-01T11:46:59;97120;;;8.2;57.5
68628;BME280;55611;48.602;9.490;2023-03-01T11:49:12;97120;;;8.3;57.5
68628;BME280;55611;48.602;9.490;2023-03-01T11:54:13;97120;;;8.4;57.5
68628;BME280;55611;48.602;9.490;2023-03-01T11:56:43;97120;;;8.4;57.5
68628;BME280;55611;48.602;9.490;2023-03-01T11:59:24;97110;;;8.4;57.5
68628;BME280;55611;48.602;9.490;2023-03-01T12:02:17;97110;;;8.5;57.5
68628;BME280;55611;48.602;9.490;2023-03-01T12:04:23;97100;;;8.6;57.5
68628;BME280;55611;48.602;9.490;2023-03-01T12:06:50;97090;;;8.6;57.5
68628;BME280;55611;48.602;9.490;2023-03-01T12:09:17;97090;;;8.7;57.5
68628;BME280;55611;48.602;9.490;2023-03-01T12:11:54;97080;;;8.7;57.5
68628;BME280;55611;48.602;9.490;2023-03-01T12:14:32;97070;;;8.8;57.5
68628;BME280;55611;48.602;9.490;2023-03-01T12:19:19;97060;;;9;57.5
68628;BME280;55611;48.602;9.490;2023-03-01T12:21:50;97060;;;8.9;57.5
68628;BME280;55611;48.602;9.490;2023-03-01T12:24:21;97060;;;8.9;57.5
68628;BME280;55611;48.602;9.490;2023-03-01T12:26:53;97060;;;8.9;57.5
68628;BME280;55611;48.602;9.490;2023-03-01T12:29:19;97060;;;9;57.5
68628;BME280;55611;48.602;9.490;2023-03-01T12:31:51;97060;;;9;57.5
68628;BME280;55611;48.602;9.490;2023-03-01T12:39:24;97040;;;9.1;57
68628;BME280;55611;48.602;9.490;2023-03-01T12:44:24;97030;;;9.2;57
68628;BME280;55611;48.602;9.490;2023-03-01T12:46:52;97020;;;9.3;57
68628;BME280;55611;48.602;9.490;2023-03-01T12:49:22;97010;;;9.3;57
68628;BME280;55611;48.602;9.490;2023-03-01T12:51:53;97010;;;9.2;57
68628;BME280;55611;48.602;9.490;2023-03-01T12:54:26;97010;;;9.3;57
68628;BME280;55611;48.602;9.490;2023-03-01T12:56:52;97000;;;9.4;57
68628;BME280;55611;48.602;9.490;2023-03-01T12:59:27;97000;;;9.4;57
68628;BME280;55611;48.602;9.490;2023-03-01T13:01:59;97000;;;9.4;57
68628;BME280;55611;48.602;9.490;2023-03-01T13:06:58;96990;;;9.5;57
68628;BME280;55611;48.602;9.490;2023-03-01T13:09:41;96990;;;9.6;57
68628;BME280;55611;48.602;9.490;2023-03-01T13:11:55;96990;;;9.7;57
68628;BME280;55611;48.602;9.490;2023-03-01T13:16:56;96990;;;9.6;57
68628;BME280;55611;48.602;9.490;2023-03-01T13:19:27;96990;;;9.6;57
68628;BME280;55611;48.602;9.490;2023-03-01T13:21:57;96990;;;9.7;57
68628;BME280;55611;48.602;9.490;2023-03-01T13:24:29;96990;;;9.7;56.5
68628;BME280;55611;48.602;9.490;2023-03-01T13:29:29;96980;;;9.8;56.5
68628;BME280;55611;48.602;9.490;2023-03-01T13:31:59;96980;;;9.9;56.5
68628;BME280;55611;48.602;9.490;2023-03-01T13:34:46;96980;;;10.1;56.5
68628;BME280;55611;48.602;9.490;2023-03-01T13:37:08;96980;;;10.1;56.5
68628;BME280;55611;48.602;9.490;2023-03-01T13:39:33;96990;;;10.2;56.5
68628;BME280;55611;48.602;9.490;2023-03-01T13:42:01;96990;;;10.1;56
68628;BME280;55611;48.602;9.490;2023-03-01T13:44:33;96980;;;10.1;56
68628;BME280;55611;48.602;9.490;2023-03-01T13:47:12;96980;;;10;56
68628;BME280;55611;48.602;9.490;2023-03-01T13:49:35;96980;;;10.1;56
68628;BME280;55611;48.602;9.490;2023-03-01T13:52:03;96970;;;10.2;56
68628;BME280;55611;48.602;9.490;2023-03-01T13:54:34;96970;;;10.1;56
68628;BME280;55611;48.602;9.490;2023-03-01T13:57:04;96970;;;10.2;56
68628;BME280;55611;48.602;9.490;2023-03-01T13:59:35;96980;;;10.3;56
68628;BME280;55611;48.602;9.490;2023-03-01T14:02:11;96970;;;10.3;56
68628;BME280;55611;48.602;9.490;2023-03-01T14:04:36;96970;;;10.3;56
68628;BME280;55611;48.602;9.490;2023-03-01T14:07:08;96980;;;10.3;56
68628;BME280;55611;48.602;9.490;2023-03-01T14:09:38;96980;;;10.2;56
68628;BME280;55611;48.602;9.490;2023-03-01T14:14:40;96980;;;10.3;56
68628;BME280;55611;48.602;9.490;2023-03-01T14:17:14;96980;;;10.2;56
68628;BME280;55611;48.602;9.490;2023-03-01T14:19:39;96980;;;10.3;56
68628;BME280;55611;48.602;9.490;2023-03-01T14:22:16;96980;;;10.3;56
68628;BME280;55611;48.602;9.490;2023-03-01T14:24:44;96990;;;10.3;56
68628;BME280;55611;48.602;9.490;2023-03-01T14:27:11;96990;;;10.2;56
68628;BME280;55611;48.602;9.490;2023-03-01T14:29:41;97000;;;10.2;56
68628;BME280;55611;48.602;9.490;2023-03-01T14:32:20;96990;;;10.1;56
68628;BME280;55611;48.602;9.490;2023-03-01T14:37:29;97000;;;10;56
68628;BME280;55611;48.602;9.490;2023-03-01T14:39:43;96990;;;9.9;56
68628;BME280;55611;48.602;9.490;2023-03-01T14:42:14;96990;;;10;56
68628;BME280;55611;48.602;9.490;2023-03-01T14:44:46;97000;;;10.1;56
68628;BME280;55611;48.602;9.490;2023-03-01T14:47:25;97000;;;10.1;56
68628;BME280;55611;48.602;9.490;2023-03-01T14:49:53;96990;;;10.1;56
68628;BME280;55611;48.602;9.490;2023-03-01T14:52:17;96990;;;10.1;56
68628;BME280;55611;48.602;9.490;2023-03-01T14:54:48;97000;;;10.1;56
68628;BME280;55611;48.602;9.490;2023-03-01T14:57:18;96990;;;10;56
68628;BME280;55611;48.602;9.490;2023-03-01T14:59:48;96990;;;10;56
68628;BME280;55611;48.602;9.490;2023-03-01T15:02:19;96990;;;10;56
68628;BME280;55611;48.602;9.490;2023-03-01T15:04:49;96990;;;10.1;55.5
68628;BME280;55611;48.602;9.490;2023-03-01T15:07:19;96990;;;10.1;55.5
68628;BME280;55611;48.602;9.490;2023-03-01T15:09:49;96980;;;10.1;56
68628;BME280;55611;48.602;9.490;2023-03-01T15:12:36;96990;;;10.1;55.5
68628;BME280;55611;48.602;9.490;2023-03-01T15:14:50;96990;;;10;56
68628;BME280;55611;48.602;9.490;2023-03-01T15:17:36;96990;;;10;56
68628;BME280;55611;48.602;9.490;2023-03-01T15:19:51;96990;;;10;55.5
68628;BME280;55611;48.602;9.490;2023-03-01T15:22:22;97000;;;9.9;55.5
68628;BME280;55611;48.602;9.490;2023-03-01T15:24:52;96990;;;9.9;55.5
68628;BME280;55611;48.602;9.490;2023-03-01T15:27:23;97000;;;9.9;55.5
68628;BME280;55611;48.602;9.490;2023-03-01T15:29:55;96990;;;9.9;55.5
68628;BME280;55611;48.602;9.490;2023-03-01T15:32:26;96990;;;9.8;55.5
68628;BME280;55611;48.602;9.490;2023-03-01T15:34:54;96980;;;9.8;55.5